This is the latest recevied weather packets stored in our database for station/object ENST. If no packets are shown the sender has not sent any weather packets the latest 10 day(s).
| Time | Temp. | Humidity | Pressure | Rain* | Wind** | Luminosity | Snow |
|---|---|---|---|---|---|---|---|
| 1777762987 | 2.78° C | 64% | 1010 hPa | - | - | - | - |
| 1777761187 | 2.78° C | 64% | 1009 hPa | - | - | - | - |
| 1777759387 | 2.78° C | 74% | 1009 hPa | - | - | - | - |
| 1777757588 | 1.67° C | 80% | 1009 hPa | - | - | - | - |
| 1777755786 | 1.67° C | 93% | 1009 hPa | - | - | - | - |
| 1777753986 | 2.78° C | 86% | 1009 hPa | - | - | - | - |
| 1777752187 | 2.78° C | 86% | 1008 hPa | - | - | - | - |
| 1777750389 | 2.78° C | 86% | 1008 hPa | - | - | - | - |
| 1777748587 | 3.89° C | 86% | 1007 hPa | - | - | - | - |
| 1777746786 | 3.89° C | 80% | 1007 hPa | - | - | - | - |
| 1777744988 | 3.89° C | 75% | 1007 hPa | - | - | - | - |
| 1777743189 | 5° C | 75% | 1007 hPa | - | - | - | - |
| 1777741388 | 5° C | 75% | 1007 hPa | - | - | - | - |
| 1777739588 | 2.78° C | 86% | 1007 hPa | - | - | - | - |
| 1777737789 | 5° C | 80% | 1007 hPa | - | - | - | - |
| 1777735988 | 3.89° C | 80% | 1008 hPa | - | - | - | - |
| 1777734189 | 5° C | 80% | 1007 hPa | - | - | - | - |
| 1777732388 | 5.56° C | 70% | 1008 hPa | - | - | - | - |
| 1777730588 | 5.56° C | 70% | 1008 hPa | - | - | - | - |
| 1777728788 | 5.56° C | 70% | 1008 hPa | - | - | - | - |
| 1777726989 | 6.67° C | 70% | 1007 hPa | - | - | - | - |
| 1777725188 | 6.67° C | 65% | 1007 hPa | - | - | - | - |
| 1777723389 | 5.56° C | 70% | 1007 hPa | - | - | - | - |
| 1777721590 | 5.56° C | 75% | 1007 hPa | - | - | - | - |
| 1777719789 | 6.67° C | 60% | 1007 hPa | - | - | - | - |
* Rain since midnight (hover to see other rain measurements)
** Current wind speed in m/s (hover to see current wind gust speed)